Gerald R. Ford International Airport Grand Rapids US
ICAO: KGRR
IATA: GRR
Category: Medium
Scheduled Services: Yes

Elevation: 794 ft
TransAlt. 18000 ft.

Airport Communications:
GRAND RAPIDS APP/DEP:124.6
ATIS:127.1
CLNC DEL:119.3
CTAF:135.65
GND:121.8
LANSING RDO:115.95
GRAND RAPIDS TWR:135.65
UNICOM:122.95

KGRR Zoom In..

Runways:

(A) RW 08L length 5000 ft width 100 ft
---- / hdg 85

(B) RW 08R length 10000 ft width 150 ft
ILS 108.30 / hdg 85

(C) RW 17 length 8501 ft width 150 ft
---- / hdg 175

(D) RW 26L length 10000 ft width 150 ft
ILS 109.70 / hdg 265

(E) RW 26R length 5000 ft width 100 ft
---- / hdg 265

(F) RW 35 length 8501 ft width 150 ft
ILS 111.90 / hdg 355

Location; KGRR
Day. 26 / Time. 12.53 Zulu
* Altimeter: 29.77
* Temperature: 23° c. 73.4°f.
* Wind from: 210° Speed 08 kn.
Dewpoint: 19° c.
Visibility: 10 Statute Miles.
Clouds: Few 6500 ft.
Clouds: Scattered 8000 ft.
Clouds: Broken 11000 ft.
Clouds: Broken 18000 ft.

KGRR 261253Z 21008KT 10SM FEW065 SCT080 BKN110 BKN180 23/19 A2977 RMK AO2 SLP077 T02280194


Wind From 210°
Speed 08 kn.

 
 
jpsmedia.com for Web Design SOUNDCLOUD worldairports.se 2018   terms of use